createdAt,value
2024-01-04T00:01:23.678Z,20.50
2024-01-04T00:06:26.637Z,20.52
2024-01-04T00:11:30.867Z,20.53
2024-01-04T00:16:34.593Z,20.51
2024-01-04T00:21:37.443Z,20.50
2024-01-04T00:26:41.691Z,20.50
2024-01-04T00:31:44.757Z,20.47
2024-01-04T00:36:47.633Z,20.48
2024-01-04T00:41:51.908Z,20.46
2024-01-04T00:46:54.958Z,20.42
2024-01-04T00:51:57.800Z,20.35
2024-01-04T00:57:02.152Z,20.27
2024-01-04T01:02:05.761Z,20.22
2024-01-04T01:07:08.612Z,20.17
2024-01-04T01:12:12.956Z,20.08
2024-01-04T01:17:15.834Z,20.02
2024-01-04T01:22:18.728Z,19.96
2024-01-04T01:27:23.401Z,19.91
2024-01-04T01:32:26.282Z,19.85
2024-01-04T01:37:29.174Z,19.83
2024-01-04T01:42:33.346Z,19.78
2024-01-04T01:47:36.328Z,19.73
2024-01-04T01:52:39.380Z,19.69
2024-01-04T01:57:43.771Z,19.64
2024-01-04T02:02:49.159Z,19.60
2024-01-04T02:07:52.188Z,19.58
2024-01-04T02:12:57.489Z,19.56
2024-01-04T02:18:00.516Z,19.53
2024-01-04T02:23:05.611Z,19.50
2024-01-04T02:28:08.734Z,19.42
2024-01-04T02:33:11.789Z,19.40
2024-01-04T02:38:16.113Z,19.41
2024-01-04T02:43:18.953Z,19.36
2024-01-04T02:48:21.932Z,19.35
2024-01-04T02:53:26.257Z,19.32
2024-01-04T02:58:29.089Z,19.30
2024-01-04T03:03:32.016Z,19.29
2024-01-04T03:08:36.362Z,19.23
2024-01-04T03:13:39.247Z,19.21
2024-01-04T03:18:42.140Z,19.20
2024-01-04T03:23:46.476Z,19.18
2024-01-04T03:28:49.430Z,19.16
2024-01-04T03:33:53.196Z,19.12
2024-01-04T03:38:57.623Z,19.11
2024-01-04T03:44:00.476Z,19.07
2024-01-04T03:49:03.417Z,19.04
2024-01-04T03:54:07.793Z,19.04
2024-01-04T03:59:10.676Z,19.02
2024-01-04T04:04:13.702Z,18.98
2024-01-04T04:09:19.488Z,18.96
2024-01-04T04:14:22.851Z,18.94
2024-01-04T04:19:25.761Z,18.91
2024-01-04T04:24:31.540Z,18.92
2024-01-04T04:29:34.468Z,18.87
2024-01-04T04:34:37.576Z,18.84
2024-01-04T04:39:41.879Z,18.80
2024-01-04T04:44:44.811Z,18.79
2024-01-04T04:49:47.792Z,18.75
2024-01-04T04:54:51.963Z,18.72
2024-01-04T04:59:55.224Z,18.72
2024-01-04T05:04:58.179Z,18.69
2024-01-04T05:10:02.369Z,18.65
2024-01-04T05:15:06.094Z,18.64
2024-01-04T05:20:10.060Z,18.62
2024-01-04T05:25:14.483Z,18.60
2024-01-04T05:30:17.734Z,18.59
2024-01-04T05:35:20.863Z,18.56
2024-01-04T05:40:25.066Z,18.56
2024-01-04T05:45:27.941Z,18.53
2024-01-04T05:50:30.900Z,18.50
2024-01-04T05:55:35.047Z,18.48
2024-01-04T06:00:37.974Z,18.48
2024-01-04T06:05:41.026Z,18.47
2024-01-04T06:10:45.777Z,18.42
2024-01-04T06:15:48.589Z,18.43
2024-01-04T06:20:51.410Z,18.41
2024-01-04T06:25:55.670Z,18.40
2024-01-04T06:30:58.623Z,18.40
2024-01-04T06:36:02.713Z,18.39
2024-01-04T06:41:08.816Z,18.40
2024-01-04T06:46:14.136Z,18.38
2024-01-04T06:51:17.252Z,18.36
2024-01-04T06:56:21.519Z,18.36
2024-01-04T07:01:24.435Z,18.35
2024-01-04T07:06:27.338Z,18.35
2024-01-04T07:11:32.503Z,18.34
2024-01-04T07:16:35.314Z,18.32
2024-01-04T07:21:38.177Z,18.29
2024-01-04T07:26:42.453Z,18.30
2024-01-04T07:31:45.298Z,18.27
2024-01-04T07:36:48.147Z,18.28
2024-01-04T07:41:52.487Z,18.28
2024-01-04T07:46:55.302Z,18.26
2024-01-04T07:51:58.209Z,18.26
2024-01-04T07:57:03.001Z,18.20
2024-01-04T08:02:06.009Z,18.16
2024-01-04T08:07:09.389Z,18.09
2024-01-04T08:12:14.241Z,17.28
2024-01-04T08:17:17.245Z,16.54
2024-01-04T08:22:20.128Z,16.41
2024-01-04T08:27:25.400Z,17.48
2024-01-04T08:32:28.564Z,17.73
2024-01-04T08:37:31.452Z,17.94
2024-01-04T08:42:35.692Z,18.13
2024-01-04T08:47:38.739Z,18.21
2024-01-04T08:52:41.686Z,18.27
2024-01-04T08:57:46.075Z,18.37
2024-01-04T09:02:49.029Z,18.44
2024-01-04T09:07:51.941Z,18.57
2024-01-04T09:12:56.111Z,18.62
2024-01-04T09:17:59.227Z,18.71
2024-01-04T09:23:02.195Z,18.76
2024-01-04T09:28:06.988Z,18.77
2024-01-04T09:33:09.975Z,18.79
2024-01-04T09:38:12.831Z,18.80
2024-01-04T09:43:17.193Z,18.86
2024-01-04T09:48:28.188Z,18.91
2024-01-04T09:53:34.715Z,18.90
2024-01-04T09:58:39.004Z,18.84
2024-01-04T10:03:41.869Z,18.86
2024-01-04T10:08:44.739Z,18.86
2024-01-04T10:13:50.837Z,18.92
2024-01-04T10:18:54.596Z,18.95
2024-01-04T10:23:59.345Z,19.00
2024-01-04T10:29:03.690Z,19.13
2024-01-04T10:34:06.594Z,19.17
2024-01-04T10:39:09.823Z,19.21
2024-01-04T10:44:13.986Z,19.26
2024-01-04T10:49:17.676Z,19.33
2024-01-04T10:54:20.824Z,19.36
2024-01-04T10:59:25.122Z,19.38
2024-01-04T11:04:30.917Z,19.39
2024-01-04T11:09:35.320Z,19.44
2024-01-04T11:14:39.582Z,19.48
2024-01-04T11:19:51.291Z,19.49
2024-01-04T11:24:58.013Z,19.46
2024-01-04T11:30:02.371Z,19.47
2024-01-04T11:35:06.535Z,19.51
2024-01-04T11:40:10.223Z,19.45
2024-01-04T11:45:17.797Z,19.45
2024-01-04T11:50:25.551Z,19.45
2024-01-04T11:55:30.340Z,19.40
2024-01-04T12:00:35.648Z,19.32
2024-01-04T12:05:38.674Z,19.25
2024-01-04T12:10:42.421Z,19.21
2024-01-04T12:15:46.609Z,19.18
2024-01-04T12:20:49.514Z,19.11
2024-01-04T12:25:52.473Z,19.10
2024-01-04T12:30:56.768Z,19.06
2024-01-04T12:36:00.856Z,19.03
2024-01-04T12:41:03.996Z,19.03
2024-01-04T12:46:10.297Z,17.65
2024-01-04T12:51:16.463Z,16.75
2024-01-04T12:56:21.681Z,16.31
2024-01-04T13:01:26.090Z,17.68
2024-01-04T13:06:29.565Z,18.02
2024-01-04T13:11:32.979Z,18.14
2024-01-04T13:16:37.480Z,18.21
2024-01-04T13:21:40.573Z,18.28
2024-01-04T13:26:45.059Z,18.33
2024-01-04T13:31:49.774Z,18.38
2024-01-04T13:36:52.682Z,18.46
2024-01-04T13:41:55.668Z,18.50
2024-01-04T13:46:59.908Z,18.50
2024-01-04T13:52:04.346Z,18.49
2024-01-04T13:57:07.260Z,18.50
2024-01-04T14:02:11.554Z,18.51
2024-01-04T14:07:14.439Z,18.50
2024-01-04T14:12:17.386Z,18.58
2024-01-04T14:17:21.699Z,18.60
2024-01-04T14:22:24.538Z,18.56
2024-01-04T14:27:28.087Z,18.52
2024-01-04T14:32:33.714Z,18.53
2024-01-04T14:37:39.827Z,18.49
2024-01-04T14:42:43.145Z,18.47
2024-01-04T14:47:48.068Z,18.38
2024-01-04T14:52:51.248Z,18.43
2024-01-04T14:57:54.956Z,18.44
2024-01-04T15:02:59.359Z,18.45
2024-01-04T15:08:03.950Z,18.43
2024-01-04T15:13:07.229Z,18.43
2024-01-04T15:18:12.363Z,18.42
2024-01-04T15:23:17.151Z,18.40
2024-01-04T15:28:20.888Z,18.41
2024-01-04T15:33:25.566Z,18.37
2024-01-04T15:38:28.886Z,18.34
2024-01-04T15:43:32.149Z,18.32
2024-01-04T15:48:36.991Z,18.31
2024-01-04T15:53:40.072Z,18.35
2024-01-04T15:58:43.027Z,18.34
2024-01-04T16:03:48.020Z,18.36
2024-01-04T16:08:51.007Z,18.36
2024-01-04T16:13:53.891Z,18.37
2024-01-04T16:18:58.261Z,18.38
2024-01-04T16:24:01.400Z,18.36
2024-01-04T16:29:04.876Z,18.37
2024-01-04T16:34:09.119Z,18.39
2024-01-04T16:39:14.077Z,18.39
2024-01-04T16:44:17.036Z,18.41
2024-01-04T16:49:22.644Z,18.45
2024-01-04T16:54:25.793Z,18.47
2024-01-04T16:59:28.741Z,18.51
2024-01-04T17:04:32.975Z,18.56
2024-01-04T17:09:36.116Z,18.55
2024-01-04T17:14:39.090Z,18.58
2024-01-04T17:19:43.525Z,18.54
2024-01-04T17:24:46.456Z,18.52
2024-01-04T17:29:49.371Z,18.52
2024-01-04T17:34:53.560Z,18.54
2024-01-04T17:39:56.777Z,18.51
2024-01-04T17:45:00.683Z,18.49
2024-01-04T17:50:07.329Z,18.47
2024-01-04T17:55:11.423Z,18.48
2024-01-04T18:00:15.533Z,18.47
2024-01-04T18:05:19.927Z,18.46
2024-01-04T18:10:22.925Z,18.42
2024-01-04T18:15:26.282Z,18.40
2024-01-04T18:20:31.294Z,18.38
2024-01-04T18:25:35.111Z,18.37
2024-01-04T18:30:38.329Z,18.37
2024-01-04T18:35:43.846Z,18.45
2024-01-04T18:40:46.834Z,18.54
2024-01-04T18:45:49.761Z,18.60
2024-01-04T18:50:53.984Z,18.72
2024-01-04T18:55:56.995Z,18.82
2024-01-04T19:01:00.381Z,18.89
2024-01-04T19:06:05.250Z,18.95
2024-01-04T19:11:08.490Z,19.01
2024-01-04T19:16:11.547Z,19.10
2024-01-04T19:21:15.803Z,19.21
2024-01-04T19:26:21.508Z,19.28
2024-01-04T19:31:24.364Z,19.33
2024-01-04T19:36:29.778Z,19.39
2024-01-04T19:41:32.678Z,19.45
2024-01-04T19:46:36.742Z,19.50
2024-01-04T19:51:41.264Z,19.55
2024-01-04T19:56:44.531Z,19.61
2024-01-04T20:01:49.233Z,19.68
2024-01-04T20:06:53.450Z,19.73
2024-01-04T20:11:56.345Z,19.79
2024-01-04T20:16:59.282Z,19.83
2024-01-04T20:22:03.759Z,19.86
2024-01-04T20:27:06.969Z,19.88
2024-01-04T20:32:10.176Z,19.92
2024-01-04T20:37:15.058Z,19.93
2024-01-04T20:42:18.065Z,19.97
2024-01-04T20:47:20.964Z,19.98
2024-01-04T20:52:25.219Z,20.04
2024-01-04T20:57:28.273Z,20.06
2024-01-04T21:02:31.573Z,20.09
2024-01-04T21:07:35.883Z,20.14
2024-01-04T21:12:38.732Z,20.17
2024-01-04T21:17:41.606Z,20.20
2024-01-04T21:22:45.872Z,20.24
2024-01-04T21:27:49.731Z,20.26
2024-01-04T21:32:52.654Z,20.31
2024-01-04T21:37:56.984Z,20.29
2024-01-04T21:42:59.813Z,20.36
2024-01-04T21:48:02.769Z,20.38
2024-01-04T21:53:07.130Z,20.39
2024-01-04T21:58:10.036Z,20.43
2024-01-04T22:03:12.975Z,20.44
2024-01-04T22:08:17.223Z,20.46
2024-01-04T22:13:20.564Z,20.48
2024-01-04T22:18:23.613Z,20.46
2024-01-04T22:23:27.861Z,20.51
2024-01-04T22:28:30.901Z,20.51
2024-01-04T22:33:33.952Z,20.52
2024-01-04T22:38:38.352Z,20.54
2024-01-04T22:43:41.195Z,20.50
2024-01-04T22:48:44.082Z,20.50
2024-01-04T22:53:48.336Z,20.48
2024-01-04T22:58:51.292Z,20.47
2024-01-04T23:03:54.194Z,20.39
2024-01-04T23:08:58.474Z,20.29
2024-01-04T23:14:02.165Z,20.19
2024-01-04T23:19:05.148Z,20.12
2024-01-04T23:24:09.690Z,20.06
2024-01-04T23:29:12.595Z,19.99
2024-01-04T23:34:15.593Z,19.94
2024-01-04T23:39:19.998Z,19.84
2024-01-04T23:44:23.046Z,19.74
2024-01-04T23:49:25.994Z,19.71
2024-01-04T23:54:30.425Z,19.64
2024-01-04T23:59:33.443Z,19.57
